Terminal Aerodrome Forecast
Issued by NWS

Current Version | Previous Version | Text Only | Print | Product List | Glossary Off
Versions: 1 2 3 4 5 6 7 8 9 10 11 12 13 14 15 16 17 18 19 20

620
FTUS41 KPBZ 290110 AAA
TAFHLG
TAF AMD
KHLG 290110Z 2901/2924 VRB03KT P6SM -TSRA BKN050CB
     FM290200 VRB05KT 5SM -SHRA VCTS OVC050CB
     FM290500 VRB05KT P6SM VCSH OVC050
     FM290800 24010KT 5SM -SHRA VCTS OVC035CB
     FM291200 25010KT P6SM -SHRA OVC020
     FM291800 25008KT P6SM VCSH BKN035=

USA.gov is the U.S. government's official web portal to all federal, state and local government web resources and services.